sensor_id;sensor_type;location;lat;lon;timestamp;P1;durP1;ratioP1;P2;durP2;ratioP2
51479;SDS011;37556;44.570;18.612;2023-04-24T00:02:03;0.28;;;0.28;;
51479;SDS011;37556;44.570;18.612;2023-04-24T00:09:25;0.65;;;0.63;;
51479;SDS011;37556;44.570;18.612;2023-04-24T00:11:51;1.00;;;0.82;;
51479;SDS011;37556;44.570;18.612;2023-04-24T00:14:17;1.15;;;1.08;;
51479;SDS011;37556;44.570;18.612;2023-04-24T00:16:43;1.17;;;1.08;;
51479;SDS011;37556;44.570;18.612;2023-04-24T00:19:09;0.77;;;0.77;;
51479;SDS011;37556;44.570;18.612;2023-04-24T00:21:36;1.92;;;1.83;;
51479;SDS011;37556;44.570;18.612;2023-04-24T00:24:03;0.57;;;0.57;;
51479;SDS011;37556;44.570;18.612;2023-04-24T00:26:29;1.85;;;0.50;;
51479;SDS011;37556;44.570;18.612;2023-04-24T00:28:55;0.77;;;0.63;;
51479;SDS011;37556;44.570;18.612;2023-04-24T00:31:21;0.68;;;0.40;;
51479;SDS011;37556;44.570;18.612;2023-04-24T00:33:47;3.47;;;0.90;;
51479;SDS011;37556;44.570;18.612;2023-04-24T00:38:40;0.90;;;0.75;;
51479;SDS011;37556;44.570;18.612;2023-04-24T00:41:06;0.73;;;0.50;;
51479;SDS011;37556;44.570;18.612;2023-04-24T00:43:32;0.88;;;0.88;;
51479;SDS011;37556;44.570;18.612;2023-04-24T00:45:58;0.80;;;0.80;;
51479;SDS011;37556;44.570;18.612;2023-04-24T00:48:26;9.55;;;2.97;;
51479;SDS011;37556;44.570;18.612;2023-04-24T00:50:53;1.60;;;0.88;;
51479;SDS011;37556;44.570;18.612;2023-04-24T00:53:19;1.48;;;1.48;;
51479;SDS011;37556;44.570;18.612;2023-04-24T00:55:45;1.95;;;1.48;;
51479;SDS011;37556;44.570;18.612;2023-04-24T00:58:12;0.77;;;0.70;;
51479;SDS011;37556;44.570;18.612;2023-04-24T01:00:38;1.85;;;0.45;;
51479;SDS011;37556;44.570;18.612;2023-04-24T01:03:04;0.93;;;0.93;;
51479;SDS011;37556;44.570;18.612;2023-04-24T01:07:57;0.13;;;0.13;;
51479;SDS011;37556;44.570;18.612;2023-04-24T01:10:24;1.65;;;0.90;;
51479;SDS011;37556;44.570;18.612;2023-04-24T01:12:51;0.65;;;0.35;;
51479;SDS011;37556;44.570;18.612;2023-04-24T01:17:43;5.05;;;1.05;;
51479;SDS011;37556;44.570;18.612;2023-04-24T01:20:10;0.82;;;0.82;;
51479;SDS011;37556;44.570;18.612;2023-04-24T01:25:02;1.08;;;1.02;;
51479;SDS011;37556;44.570;18.612;2023-04-24T01:27:30;0.98;;;0.65;;
51479;SDS011;37556;44.570;18.612;2023-04-24T01:29:56;0.52;;;0.10;;
51479;SDS011;37556;44.570;18.612;2023-04-24T01:34:48;0.60;;;0.60;;
51479;SDS011;37556;44.570;18.612;2023-04-24T01:37:14;2.25;;;0.80;;
51479;SDS011;37556;44.570;18.612;2023-04-24T01:39:41;0.63;;;0.63;;
51479;SDS011;37556;44.570;18.612;2023-04-24T01:42:07;0.85;;;0.75;;
51479;SDS011;37556;44.570;18.612;2023-04-24T01:44:34;1.02;;;1.02;;
51479;SDS011;37556;44.570;18.612;2023-04-24T01:47:00;1.40;;;1.30;;
51479;SDS011;37556;44.570;18.612;2023-04-24T01:49:27;0.63;;;0.63;;
51479;SDS011;37556;44.570;18.612;2023-04-24T01:51:53;1.42;;;1.17;;
51479;SDS011;37556;44.570;18.612;2023-04-24T01:54:19;0.70;;;0.70;;
51479;SDS011;37556;44.570;18.612;2023-04-24T01:56:45;0.47;;;0.47;;
51479;SDS011;37556;44.570;18.612;2023-04-24T01:59:12;1.33;;;0.65;;
51479;SDS011;37556;44.570;18.612;2023-04-24T02:01:38;0.45;;;0.45;;
51479;SDS011;37556;44.570;18.612;2023-04-24T02:06:30;0.80;;;0.38;;
51479;SDS011;37556;44.570;18.612;2023-04-24T02:09:00;0.70;;;0.70;;
51479;SDS011;37556;44.570;18.612;2023-04-24T02:11:26;2.47;;;2.17;;
51479;SDS011;37556;44.570;18.612;2023-04-24T02:13:52;0.65;;;0.65;;
51479;SDS011;37556;44.570;18.612;2023-04-24T02:16:18;0.30;;;0.30;;
51479;SDS011;37556;44.570;18.612;2023-04-24T02:18:44;1.85;;;0.45;;
51479;SDS011;37556;44.570;18.612;2023-04-24T02:23:37;0.45;;;0.45;;
51479;SDS011;37556;44.570;18.612;2023-04-24T02:26:03;1.38;;;1.27;;
51479;SDS011;37556;44.570;18.612;2023-04-24T02:28:29;2.10;;;1.63;;
51479;SDS011;37556;44.570;18.612;2023-04-24T02:30:55;1.02;;;0.98;;
51479;SDS011;37556;44.570;18.612;2023-04-24T02:35:47;1.95;;;1.58;;
51479;SDS011;37556;44.570;18.612;2023-04-24T02:38:13;0.75;;;0.75;;
51479;SDS011;37556;44.570;18.612;2023-04-24T02:40:40;1.23;;;1.13;;
51479;SDS011;37556;44.570;18.612;2023-04-24T02:43:06;2.10;;;0.98;;
51479;SDS011;37556;44.570;18.612;2023-04-24T02:45:32;0.50;;;0.30;;
51479;SDS011;37556;44.570;18.612;2023-04-24T02:47:59;1.85;;;1.65;;
51479;SDS011;37556;44.570;18.612;2023-04-24T02:52:51;0.22;;;0.22;;
51479;SDS011;37556;44.570;18.612;2023-04-24T02:55:18;1.55;;;1.45;;
51479;SDS011;37556;44.570;18.612;2023-04-24T02:57:44;0.43;;;0.40;;
51479;SDS011;37556;44.570;18.612;2023-04-24T03:00:10;1.00;;;1.00;;
51479;SDS011;37556;44.570;18.612;2023-04-24T03:02:36;1.50;;;1.40;;
51479;SDS011;37556;44.570;18.612;2023-04-24T03:05:02;0.75;;;0.75;;
51479;SDS011;37556;44.570;18.612;2023-04-24T03:07:29;1.23;;;1.15;;
51479;SDS011;37556;44.570;18.612;2023-04-24T03:09:56;4.35;;;1.13;;
51479;SDS011;37556;44.570;18.612;2023-04-24T03:12:23;0.68;;;0.68;;
51479;SDS011;37556;44.570;18.612;2023-04-24T03:17:15;5.50;;;0.95;;
51479;SDS011;37556;44.570;18.612;2023-04-24T03:19:41;0.85;;;0.75;;
51479;SDS011;37556;44.570;18.612;2023-04-24T03:22:07;1.40;;;1.30;;
51479;SDS011;37556;44.570;18.612;2023-04-24T03:24:34;1.23;;;1.13;;
51479;SDS011;37556;44.570;18.612;2023-04-24T03:27:00;2.17;;;1.55;;
51479;SDS011;37556;44.570;18.612;2023-04-24T03:29:26;0.73;;;0.70;;
51479;SDS011;37556;44.570;18.612;2023-04-24T03:31:52;1.13;;;1.13;;
51479;SDS011;37556;44.570;18.612;2023-04-24T03:34:18;3.90;;;2.00;;
51479;SDS011;37556;44.570;18.612;2023-04-24T03:36:44;1.73;;;1.63;;
51479;SDS011;37556;44.570;18.612;2023-04-24T03:39:12;1.13;;;0.95;;
51479;SDS011;37556;44.570;18.612;2023-04-24T03:41:38;1.33;;;1.17;;
51479;SDS011;37556;44.570;18.612;2023-04-24T03:44:05;2.20;;;0.85;;
51479;SDS011;37556;44.570;18.612;2023-04-24T03:46:31;2.25;;;1.90;;
51479;SDS011;37556;44.570;18.612;2023-04-24T03:48:57;2.20;;;2.00;;
51479;SDS011;37556;44.570;18.612;2023-04-24T03:51:23;1.10;;;1.10;;
51479;SDS011;37556;44.570;18.612;2023-04-24T03:53:50;2.25;;;2.05;;
51479;SDS011;37556;44.570;18.612;2023-04-24T03:56:16;1.90;;;1.80;;
51479;SDS011;37556;44.570;18.612;2023-04-24T03:58:42;1.65;;;1.55;;
51479;SDS011;37556;44.570;18.612;2023-04-24T04:01:08;4.90;;;1.45;;
51479;SDS011;37556;44.570;18.612;2023-04-24T04:03:36;1.65;;;1.55;;
51479;SDS011;37556;44.570;18.612;2023-04-24T04:06:02;1.17;;;1.13;;
51479;SDS011;37556;44.570;18.612;2023-04-24T04:08:29;1.20;;;1.05;;
51479;SDS011;37556;44.570;18.612;2023-04-24T04:13:21;1.63;;;1.52;;
51479;SDS011;37556;44.570;18.612;2023-04-24T04:15:47;2.45;;;1.42;;
51479;SDS011;37556;44.570;18.612;2023-04-24T04:18:13;1.63;;;1.45;;
51479;SDS011;37556;44.570;18.612;2023-04-24T04:20:40;7.47;;;4.13;;
51479;SDS011;37556;44.570;18.612;2023-04-24T04:23:06;0.98;;;0.65;;
51479;SDS011;37556;44.570;18.612;2023-04-24T04:25:32;2.28;;;2.17;;
51479;SDS011;37556;44.570;18.612;2023-04-24T04:27:59;1.88;;;1.50;;
51479;SDS011;37556;44.570;18.612;2023-04-24T04:30:27;1.75;;;1.08;;
51479;SDS011;37556;44.570;18.612;2023-04-24T04:32:54;1.10;;;1.00;;
51479;SDS011;37556;44.570;18.612;2023-04-24T04:35:21;2.33;;;2.15;;
51479;SDS011;37556;44.570;18.612;2023-04-24T04:37:47;6.45;;;3.03;;
51479;SDS011;37556;44.570;18.612;2023-04-24T04:40:13;12.40;;;4.78;;
51479;SDS011;37556;44.570;18.612;2023-04-24T04:42:39;3.63;;;2.38;;
51479;SDS011;37556;44.570;18.612;2023-04-24T04:45:06;1.40;;;1.40;;
51479;SDS011;37556;44.570;18.612;2023-04-24T04:47:36;2.22;;;2.08;;
51479;SDS011;37556;44.570;18.612;2023-04-24T04:50:03;12.55;;;3.05;;
51479;SDS011;37556;44.570;18.612;2023-04-24T04:52:30;4.63;;;3.92;;
51479;SDS011;37556;44.570;18.612;2023-04-24T04:57:22;18.02;;;4.30;;
51479;SDS011;37556;44.570;18.612;2023-04-24T04:59:48;8.20;;;5.70;;
51479;SDS011;37556;44.570;18.612;2023-04-24T05:02:14;9.35;;;2.30;;
51479;SDS011;37556;44.570;18.612;2023-04-24T05:04:40;3.90;;;3.50;;
51479;SDS011;37556;44.570;18.612;2023-04-24T05:07:07;5.50;;;2.88;;
51479;SDS011;37556;44.570;18.612;2023-04-24T05:09:33;4.72;;;2.38;;
51479;SDS011;37556;44.570;18.612;2023-04-24T05:14:25;3.13;;;2.78;;
51479;SDS011;37556;44.570;18.612;2023-04-24T05:19:17;13.43;;;3.30;;
51479;SDS011;37556;44.570;18.612;2023-04-24T05:21:43;3.20;;;2.90;;
51479;SDS011;37556;44.570;18.612;2023-04-24T05:24:10;16.00;;;3.80;;
51479;SDS011;37556;44.570;18.612;2023-04-24T05:29:04;4.80;;;4.43;;
51479;SDS011;37556;44.570;18.612;2023-04-24T05:31:32;9.07;;;3.22;;
51479;SDS011;37556;44.570;18.612;2023-04-24T05:36:24;3.35;;;2.40;;
51479;SDS011;37556;44.570;18.612;2023-04-24T05:38:50;2.13;;;2.03;;
51479;SDS011;37556;44.570;18.612;2023-04-24T05:43:42;2.67;;;2.47;;
51479;SDS011;37556;44.570;18.612;2023-04-24T05:46:15;2.38;;;1.95;;
51479;SDS011;37556;44.570;18.612;2023-04-24T05:48:47;5.50;;;2.83;;
51479;SDS011;37556;44.570;18.612;2023-04-24T05:51:20;4.85;;;3.95;;
51479;SDS011;37556;44.570;18.612;2023-04-24T05:53:46;5.85;;;4.35;;
51479;SDS011;37556;44.570;18.612;2023-04-24T05:56:12;2.53;;;2.42;;
51479;SDS011;37556;44.570;18.612;2023-04-24T05:58:39;5.07;;;3.00;;
51479;SDS011;37556;44.570;18.612;2023-04-24T06:01:08;6.40;;;5.20;;
51479;SDS011;37556;44.570;18.612;2023-04-24T06:03:43;6.30;;;5.80;;
51479;SDS011;37556;44.570;18.612;2023-04-24T06:06:18;7.80;;;4.05;;
51479;SDS011;37556;44.570;18.612;2023-04-24T06:08:53;5.15;;;4.15;;
51479;SDS011;37556;44.570;18.612;2023-04-24T06:11:25;3.88;;;3.60;;
51479;SDS011;37556;44.570;18.612;2023-04-24T06:13:55;4.80;;;4.40;;
51479;SDS011;37556;44.570;18.612;2023-04-24T06:22:37;16.75;;;9.32;;
51479;SDS011;37556;44.570;18.612;2023-04-24T06:25:05;9.80;;;7.20;;
51479;SDS011;37556;44.570;18.612;2023-04-24T06:27:50;6.43;;;4.72;;
51479;SDS011;37556;44.570;18.612;2023-04-24T06:30:21;7.97;;;5.70;;
51479;SDS011;37556;44.570;18.612;2023-04-24T06:38:31;5.57;;;5.05;;
51479;SDS011;37556;44.570;18.612;2023-04-24T06:43:23;5.65;;;4.65;;
51479;SDS011;37556;44.570;18.612;2023-04-24T06:45:50;8.38;;;3.72;;
51479;SDS011;37556;44.570;18.612;2023-04-24T06:48:18;4.32;;;3.83;;
51479;SDS011;37556;44.570;18.612;2023-04-24T06:50:48;10.98;;;3.70;;
51479;SDS011;37556;44.570;18.612;2023-04-24T06:55:40;5.95;;;3.25;;
51479;SDS011;37556;44.570;18.612;2023-04-24T06:58:08;2.60;;;2.40;;
51479;SDS011;37556;44.570;18.612;2023-04-24T07:00:34;4.60;;;4.15;;
51479;SDS011;37556;44.570;18.612;2023-04-24T07:05:43;7.78;;;5.32;;
51479;SDS011;37556;44.570;18.612;2023-04-24T07:08:23;1.80;;;1.70;;
51479;SDS011;37556;44.570;18.612;2023-04-24T07:10:59;4.57;;;1.65;;
51479;SDS011;37556;44.570;18.612;2023-04-24T07:13:36;8.68;;;2.63;;
51479;SDS011;37556;44.570;18.612;2023-04-24T07:16:20;2.35;;;2.25;;
51479;SDS011;37556;44.570;18.612;2023-04-24T07:18:52;6.40;;;3.63;;
51479;SDS011;37556;44.570;18.612;2023-04-24T07:21:28;3.08;;;2.83;;
51479;SDS011;37556;44.570;18.612;2023-04-24T07:24:00;2.88;;;2.60;;
51479;SDS011;37556;44.570;18.612;2023-04-24T07:26:28;3.60;;;2.35;;
51479;SDS011;37556;44.570;18.612;2023-04-24T07:29:04;2.53;;;2.25;;
51479;SDS011;37556;44.570;18.612;2023-04-24T07:31:37;1.60;;;1.50;;
51479;SDS011;37556;44.570;18.612;2023-04-24T07:34:24;11.70;;;2.40;;
51479;SDS011;37556;44.570;18.612;2023-04-24T07:36:53;1.08;;;1.02;;
51479;SDS011;37556;44.570;18.612;2023-04-24T07:39:28;4.90;;;2.63;;
51479;SDS011;37556;44.570;18.612;2023-04-24T07:41:57;1.13;;;1.13;;
51479;SDS011;37556;44.570;18.612;2023-04-24T07:44:31;0.75;;;0.75;;
51479;SDS011;37556;44.570;18.612;2023-04-24T07:46:57;6.28;;;1.05;;
51479;SDS011;37556;44.570;18.612;2023-04-24T07:49:26;1.25;;;0.98;;
51479;SDS011;37556;44.570;18.612;2023-04-24T07:52:20;2.40;;;2.30;;
51479;SDS011;37556;44.570;18.612;2023-04-24T07:55:00;1.80;;;1.70;;
51479;SDS011;37556;44.570;18.612;2023-04-24T08:03:18;3.35;;;2.75;;
51479;SDS011;37556;44.570;18.612;2023-04-24T08:05:45;2.72;;;2.05;;
51479;SDS011;37556;44.570;18.612;2023-04-24T08:08:27;1.27;;;1.27;;
51479;SDS011;37556;44.570;18.612;2023-04-24T08:11:26;2.70;;;2.47;;
51479;SDS011;37556;44.570;18.612;2023-04-24T08:17:00;1.63;;;1.63;;
51479;SDS011;37556;44.570;18.612;2023-04-24T08:19:27;13.52;;;3.10;;
51479;SDS011;37556;44.570;18.612;2023-04-24T08:21:58;1.55;;;1.45;;
51479;SDS011;37556;44.570;18.612;2023-04-24T08:24:31;3.13;;;2.58;;
51479;SDS011;37556;44.570;18.612;2023-04-24T08:29:42;6.30;;;1.98;;
51479;SDS011;37556;44.570;18.612;2023-04-24T08:32:09;1.67;;;1.58;;
51479;SDS011;37556;44.570;18.612;2023-04-24T08:43:28;1.75;;;1.30;;
51479;SDS011;37556;44.570;18.612;2023-04-24T08:58:07;1.60;;;1.42;;
51479;SDS011;37556;44.570;18.612;2023-04-24T09:00:43;0.43;;;0.43;;
51479;SDS011;37556;44.570;18.612;2023-04-24T09:03:17;0.95;;;0.95;;
51479;SDS011;37556;44.570;18.612;2023-04-24T09:05:47;1.17;;;1.08;;
51479;SDS011;37556;44.570;18.612;2023-04-24T09:08:26;1.10;;;1.10;;
51479;SDS011;37556;44.570;18.612;2023-04-24T09:10:57;0.82;;;0.82;;
51479;SDS011;37556;44.570;18.612;2023-04-24T09:13:30;2.20;;;2.00;;
51479;SDS011;37556;44.570;18.612;2023-04-24T09:16:02;1.52;;;1.15;;
51479;SDS011;37556;44.570;18.612;2023-04-24T09:18:30;2.90;;;1.20;;
51479;SDS011;37556;44.570;18.612;2023-04-24T09:21:07;3.00;;;2.45;;
51479;SDS011;37556;44.570;18.612;2023-04-24T09:23:38;1.40;;;1.30;;
51479;SDS011;37556;44.570;18.612;2023-04-24T09:26:21;8.18;;;4.97;;
51479;SDS011;37556;44.570;18.612;2023-04-24T09:28:57;1.17;;;1.08;;
51479;SDS011;37556;44.570;18.612;2023-04-24T09:31:30;7.65;;;4.65;;
51479;SDS011;37556;44.570;18.612;2023-04-24T09:36:51;0.70;;;0.70;;
51479;SDS011;37556;44.570;18.612;2023-04-24T09:45:37;3.33;;;3.00;;
51479;SDS011;37556;44.570;18.612;2023-04-24T09:48:11;0.93;;;0.77;;
51479;SDS011;37556;44.570;18.612;2023-04-24T09:50:39;1.27;;;1.17;;
51479;SDS011;37556;44.570;18.612;2023-04-24T09:53:08;1.63;;;1.25;;
51479;SDS011;37556;44.570;18.612;2023-04-24T09:55:46;0.20;;;0.20;;
51479;SDS011;37556;44.570;18.612;2023-04-24T09:58:18;0.70;;;0.70;;
51479;SDS011;37556;44.570;18.612;2023-04-24T10:01:08;0.80;;;0.80;;
51479;SDS011;37556;44.570;18.612;2023-04-24T10:03:39;1.05;;;1.02;;
51479;SDS011;37556;44.570;18.612;2023-04-24T10:06:11;1.42;;;1.33;;
51479;SDS011;37556;44.570;18.612;2023-04-24T10:11:56;2.05;;;1.77;;
51479;SDS011;37556;44.570;18.612;2023-04-24T10:14:23;1.38;;;0.52;;
51479;SDS011;37556;44.570;18.612;2023-04-24T10:16:50;1.15;;;0.70;;
51479;SDS011;37556;44.570;18.612;2023-04-24T10:19:34;4.50;;;1.50;;
51479;SDS011;37556;44.570;18.612;2023-04-24T10:22:06;0.68;;;0.68;;
51479;SDS011;37556;44.570;18.612;2023-04-24T10:24:56;1.10;;;1.10;;
51479;SDS011;37556;44.570;18.612;2023-04-24T10:36:52;2.63;;;1.25;;
51479;SDS011;37556;44.570;18.612;2023-04-24T10:39:24;2.63;;;2.42;;
51479;SDS011;37556;44.570;18.612;2023-04-24T11:02:53;0.57;;;0.57;;
51479;SDS011;37556;44.570;18.612;2023-04-24T11:05:20;0.75;;;0.75;;
51479;SDS011;37556;44.570;18.612;2023-04-24T11:10:31;2.45;;;1.83;;
51479;SDS011;37556;44.570;18.612;2023-04-24T11:12:57;2.03;;;1.85;;
51479;SDS011;37556;44.570;18.612;2023-04-24T11:18:26;2.08;;;1.98;;
51479;SDS011;37556;44.570;18.612;2023-04-24T11:21:09;1.45;;;1.08;;
51479;SDS011;37556;44.570;18.612;2023-04-24T11:23:36;0.80;;;0.80;;
51479;SDS011;37556;44.570;18.612;2023-04-24T11:26:09;0.55;;;0.55;;
51479;SDS011;37556;44.570;18.612;2023-04-24T11:28:35;0.95;;;0.95;;
51479;SDS011;37556;44.570;18.612;2023-04-24T11:33:46;2.47;;;2.28;;
51479;SDS011;37556;44.570;18.612;2023-04-24T11:36:13;1.15;;;1.08;;
51479;SDS011;37556;44.570;18.612;2023-04-24T11:38:39;1.02;;;1.02;;
51479;SDS011;37556;44.570;18.612;2023-04-24T11:41:05;0.98;;;0.98;;
51479;SDS011;37556;44.570;18.612;2023-04-24T11:43:33;0.77;;;0.77;;
51479;SDS011;37556;44.570;18.612;2023-04-24T11:46:00;0.22;;;0.22;;
51479;SDS011;37556;44.570;18.612;2023-04-24T11:48:26;0.65;;;0.65;;
51479;SDS011;37556;44.570;18.612;2023-04-24T11:50:53;1.13;;;1.13;;
51479;SDS011;37556;44.570;18.612;2023-04-24T11:53:21;0.40;;;0.40;;
51479;SDS011;37556;44.570;18.612;2023-04-24T11:55:48;2.55;;;2.42;;
51479;SDS011;37556;44.570;18.612;2023-04-24T11:58:14;0.50;;;0.47;;
51479;SDS011;37556;44.570;18.612;2023-04-24T12:00:40;1.38;;;1.17;;
51479;SDS011;37556;44.570;18.612;2023-04-24T12:03:07;0.28;;;0.28;;
51479;SDS011;37556;44.570;18.612;2023-04-24T12:05:33;0.75;;;0.75;;
51479;SDS011;37556;44.570;18.612;2023-04-24T12:08:00;0.13;;;0.13;;
51479;SDS011;37556;44.570;18.612;2023-04-24T12:10:27;2.00;;;0.60;;
51479;SDS011;37556;44.570;18.612;2023-04-24T12:12:55;0.28;;;0.28;;
51479;SDS011;37556;44.570;18.612;2023-04-24T12:15:22;1.13;;;1.08;;
51479;SDS011;37556;44.570;18.612;2023-04-24T12:17:50;0.57;;;0.57;;
51479;SDS011;37556;44.570;18.612;2023-04-24T12:20:17;0.32;;;0.32;;
51479;SDS011;37556;44.570;18.612;2023-04-24T12:22:47;0.82;;;0.80;;
51479;SDS011;37556;44.570;18.612;2023-04-24T12:25:14;6.15;;;3.55;;
51479;SDS011;37556;44.570;18.612;2023-04-24T12:27:40;0.52;;;0.52;;
51479;SDS011;37556;44.570;18.612;2023-04-24T12:30:10;2.25;;;0.88;;
51479;SDS011;37556;44.570;18.612;2023-04-24T12:32:40;0.47;;;0.43;;
51479;SDS011;37556;44.570;18.612;2023-04-24T12:35:06;0.77;;;0.77;;
51479;SDS011;37556;44.570;18.612;2023-04-24T12:37:33;3.17;;;2.28;;
51479;SDS011;37556;44.570;18.612;2023-04-24T12:40:04;0.70;;;0.70;;
51479;SDS011;37556;44.570;18.612;2023-04-24T12:42:32;5.93;;;1.17;;
51479;SDS011;37556;44.570;18.612;2023-04-24T12:44:59;0.52;;;0.52;;
51479;SDS011;37556;44.570;18.612;2023-04-24T12:47:26;0.63;;;0.63;;
51479;SDS011;37556;44.570;18.612;2023-04-24T12:49:52;0.88;;;0.88;;
51479;SDS011;37556;44.570;18.612;2023-04-24T12:52:20;0.38;;;0.30;;
51479;SDS011;37556;44.570;18.612;2023-04-24T12:54:46;0.20;;;0.20;;
51479;SDS011;37556;44.570;18.612;2023-04-24T12:57:12;0.30;;;0.30;;
51479;SDS011;37556;44.570;18.612;2023-04-24T12:59:39;2.08;;;0.65;;
51479;SDS011;37556;44.570;18.612;2023-04-24T13:02:05;1.08;;;1.08;;
51479;SDS011;37556;44.570;18.612;2023-04-24T13:04:32;1.58;;;0.77;;
51479;SDS011;37556;44.570;18.612;2023-04-24T13:06:58;0.32;;;0.32;;
51479;SDS011;37556;44.570;18.612;2023-04-24T13:09:24;0.65;;;0.63;;
51479;SDS011;37556;44.570;18.612;2023-04-24T13:11:50;0.20;;;0.20;;
51479;SDS011;37556;44.570;18.612;2023-04-24T13:14:16;0.20;;;0.20;;
51479;SDS011;37556;44.570;18.612;2023-04-24T13:16:42;1.45;;;1.35;;
51479;SDS011;37556;44.570;18.612;2023-04-24T13:19:09;0.75;;;0.75;;
51479;SDS011;37556;44.570;18.612;2023-04-24T13:21:35;1.10;;;0.50;;
51479;SDS011;37556;44.570;18.612;2023-04-24T13:24:01;0.85;;;0.75;;
51479;SDS011;37556;44.570;18.612;2023-04-24T13:26:29;0.38;;;0.38;;
51479;SDS011;37556;44.570;18.612;2023-04-24T13:28:55;0.50;;;0.50;;
51479;SDS011;37556;44.570;18.612;2023-04-24T13:31:22;0.03;;;0.00;;
51479;SDS011;37556;44.570;18.612;2023-04-24T13:33:48;0.75;;;0.75;;
51479;SDS011;37556;44.570;18.612;2023-04-24T13:36:14;1.38;;;1.27;;
51479;SDS011;37556;44.570;18.612;2023-04-24T13:38:42;0.25;;;0.25;;
51479;SDS011;37556;44.570;18.612;2023-04-24T13:41:08;1.00;;;1.00;;
51479;SDS011;37556;44.570;18.612;2023-04-24T13:43:34;0.75;;;0.75;;
51479;SDS011;37556;44.570;18.612;2023-04-24T13:46:00;0.00;;;0.00;;
51479;SDS011;37556;44.570;18.612;2023-04-24T13:48:28;0.25;;;0.25;;
51479;SDS011;37556;44.570;18.612;2023-04-24T13:50:54;0.43;;;0.43;;
51479;SDS011;37556;44.570;18.612;2023-04-24T13:53:20;0.40;;;0.40;;
51479;SDS011;37556;44.570;18.612;2023-04-24T13:55:46;0.47;;;0.47;;
51479;SDS011;37556;44.570;18.612;2023-04-24T13:58:13;1.00;;;1.00;;
51479;SDS011;37556;44.570;18.612;2023-04-24T14:00:40;1.23;;;1.02;;
51479;SDS011;37556;44.570;18.612;2023-04-24T14:03:06;0.17;;;0.08;;
51479;SDS011;37556;44.570;18.612;2023-04-24T14:05:32;1.00;;;1.00;;
51479;SDS011;37556;44.570;18.612;2023-04-24T14:07:58;0.30;;;0.30;;
51479;SDS011;37556;44.570;18.612;2023-04-24T14:10:24;0.10;;;0.10;;
51479;SDS011;37556;44.570;18.612;2023-04-24T14:12:52;0.30;;;0.30;;
51479;SDS011;37556;44.570;18.612;2023-04-24T14:15:18;0.20;;;0.20;;
51479;SDS011;37556;44.570;18.612;2023-04-24T14:17:44;0.70;;;0.70;;
51479;SDS011;37556;44.570;18.612;2023-04-24T14:20:12;2.63;;;0.65;;
51479;SDS011;37556;44.570;18.612;2023-04-24T14:22:38;0.57;;;0.50;;
51479;SDS011;37556;44.570;18.612;2023-04-24T14:25:04;0.20;;;0.20;;
51479;SDS011;37556;44.570;18.612;2023-04-24T14:27:31;4.60;;;1.83;;
51479;SDS011;37556;44.570;18.612;2023-04-24T14:29:59;1.08;;;0.60;;
51479;SDS011;37556;44.570;18.612;2023-04-24T14:32:25;0.88;;;0.85;;
51479;SDS011;37556;44.570;18.612;2023-04-24T14:37:18;0.03;;;0.03;;
51479;SDS011;37556;44.570;18.612;2023-04-24T14:39:45;3.85;;;0.85;;
51479;SDS011;37556;44.570;18.612;2023-04-24T14:42:11;0.20;;;0.20;;
51479;SDS011;37556;44.570;18.612;2023-04-24T14:47:03;1.05;;;0.98;;
51479;SDS011;37556;44.570;18.612;2023-04-24T14:51:55;0.20;;;0.20;;
51479;SDS011;37556;44.570;18.612;2023-04-24T14:54:21;0.55;;;0.55;;
51479;SDS011;37556;44.570;18.612;2023-04-24T14:56:48;0.57;;;0.32;;
51479;SDS011;37556;44.570;18.612;2023-04-24T14:59:15;0.43;;;0.43;;
51479;SDS011;37556;44.570;18.612;2023-04-24T15:01:41;0.40;;;0.40;;
51479;SDS011;37556;44.570;18.612;2023-04-24T15:04:07;0.20;;;0.20;;
51479;SDS011;37556;44.570;18.612;2023-04-24T15:06:33;0.00;;;0.00;;
51479;SDS011;37556;44.570;18.612;2023-04-24T15:09:00;1.75;;;0.70;;
51479;SDS011;37556;44.570;18.612;2023-04-24T15:11:26;0.43;;;0.43;;
51479;SDS011;37556;44.570;18.612;2023-04-24T15:13:52;0.77;;;0.47;;
51479;SDS011;37556;44.570;18.612;2023-04-24T15:16:19;0.17;;;0.13;;
51479;SDS011;37556;44.570;18.612;2023-04-24T15:18:45;0.20;;;0.20;;
51479;SDS011;37556;44.570;18.612;2023-04-24T15:23:38;0.22;;;0.22;;
51479;SDS011;37556;44.570;18.612;2023-04-24T15:26:04;0.13;;;0.13;;
51479;SDS011;37556;44.570;18.612;2023-04-24T15:28:30;0.75;;;0.75;;
51479;SDS011;37556;44.570;18.612;2023-04-24T15:33:22;0.25;;;0.20;;
51479;SDS011;37556;44.570;18.612;2023-04-24T15:35:48;0.10;;;0.10;;
51479;SDS011;37556;44.570;18.612;2023-04-24T15:38:15;0.40;;;0.35;;
51479;SDS011;37556;44.570;18.612;2023-04-24T15:43:07;2.42;;;0.98;;
51479;SDS011;37556;44.570;18.612;2023-04-24T15:45:33;7.13;;;0.60;;
51479;SDS011;37556;44.570;18.612;2023-04-24T15:48:00;0.70;;;0.50;;
51479;SDS011;37556;44.570;18.612;2023-04-24T15:50:26;0.57;;;0.57;;
51479;SDS011;37556;44.570;18.612;2023-04-24T15:52:53;0.00;;;0.00;;
51479;SDS011;37556;44.570;18.612;2023-04-24T15:57:45;1.40;;;1.30;;
51479;SDS011;37556;44.570;18.612;2023-04-24T16:02:37;0.20;;;0.10;;
51479;SDS011;37556;44.570;18.612;2023-04-24T16:05:04;0.00;;;0.00;;
51479;SDS011;37556;44.570;18.612;2023-04-24T16:07:33;0.63;;;0.63;;
51479;SDS011;37556;44.570;18.612;2023-04-24T16:10:00;0.20;;;0.20;;
51479;SDS011;37556;44.570;18.612;2023-04-24T16:12:26;1.00;;;1.00;;
51479;SDS011;37556;44.570;18.612;2023-04-24T16:17:19;0.75;;;0.75;;
51479;SDS011;37556;44.570;18.612;2023-04-24T16:19:45;3.92;;;0.60;;
51479;SDS011;37556;44.570;18.612;2023-04-24T16:24:37;0.10;;;0.10;;
51479;SDS011;37556;44.570;18.612;2023-04-24T16:29:29;2.92;;;0.50;;
51479;SDS011;37556;44.570;18.612;2023-04-24T16:31:56;2.58;;;0.35;;
51479;SDS011;37556;44.570;18.612;2023-04-24T16:34:22;0.08;;;0.08;;
51479;SDS011;37556;44.570;18.612;2023-04-24T16:39:15;0.10;;;0.10;;
51479;SDS011;37556;44.570;18.612;2023-04-24T16:44:07;0.60;;;0.60;;
51479;SDS011;37556;44.570;18.612;2023-04-24T16:46:33;1.48;;;1.38;;
51479;SDS011;37556;44.570;18.612;2023-04-24T16:51:25;1.05;;;1.05;;
51479;SDS011;37556;44.570;18.612;2023-04-24T16:53:53;0.98;;;0.57;;
51479;SDS011;37556;44.570;18.612;2023-04-24T16:56:19;0.60;;;0.60;;
51479;SDS011;37556;44.570;18.612;2023-04-24T17:01:11;1.52;;;1.38;;
51479;SDS011;37556;44.570;18.612;2023-04-24T17:06:03;2.28;;;2.13;;
51479;SDS011;37556;44.570;18.612;2023-04-24T17:08:30;1.60;;;1.50;;
51479;SDS011;37556;44.570;18.612;2023-04-24T17:10:56;1.15;;;1.05;;
51479;SDS011;37556;44.570;18.612;2023-04-24T17:15:49;1.75;;;1.48;;
51479;SDS011;37556;44.570;18.612;2023-04-24T17:21:00;0.32;;;0.32;;
51479;SDS011;37556;44.570;18.612;2023-04-24T17:23:27;2.15;;;0.52;;
51479;SDS011;37556;44.570;18.612;2023-04-24T17:28:26;1.67;;;0.80;;
51479;SDS011;37556;44.570;18.612;2023-04-24T17:30:53;1.70;;;0.68;;
51479;SDS011;37556;44.570;18.612;2023-04-24T17:33:22;1.70;;;0.85;;
51479;SDS011;37556;44.570;18.612;2023-04-24T17:35:48;1.13;;;1.08;;
51479;SDS011;37556;44.570;18.612;2023-04-24T17:40:40;0.93;;;0.88;;
51479;SDS011;37556;44.570;18.612;2023-04-24T17:43:06;5.40;;;1.98;;
51479;SDS011;37556;44.570;18.612;2023-04-24T17:45:33;1.25;;;1.15;;
51479;SDS011;37556;44.570;18.612;2023-04-24T17:50:25;3.85;;;1.75;;
51479;SDS011;37556;44.570;18.612;2023-04-24T17:52:51;2.10;;;1.90;;
51479;SDS011;37556;44.570;18.612;2023-04-24T17:55:17;1.33;;;1.00;;
51479;SDS011;37556;44.570;18.612;2023-04-24T18:00:09;1.38;;;1.27;;
51479;SDS011;37556;44.570;18.612;2023-04-24T18:02:36;0.88;;;0.88;;